Med Antarctic — 9HA4607 — position and weather

sailwx.info

Track history (hours):
 
Tides and Currents Weather Stations Pressure Air Temp Water Temp Dewpoint Dewpoint Depression Visibility Wind Speed Wind Dir Waves Ship Positions

Med Antarctic

Last reported at 2018-Jun-23 03:06 UTC. Time now 2018-Jun-23 06:09 UTC.
Position N 54°00' E 008°16'.

Length 124 m; draft 5.4 m.

Type: Ship. MMSI: 248315000.

Date/timePositionNaut miles runAvg speedWind from/ knotsBaromVisibWave heightAir tempDewpointWater temp
2018-Jun-23 03:06N 54°00' E 008°16'110.7
2018-Jun-23 02:59N 54°00' E 008°18'611.3
2018-Jun-23 02:28N 53°59' E 008°28'612.5
2018-Jun-23 01:59N 53°57' E 008°38'613.2
2018-Jun-23 01:30N 53°52' E 008°44'713.7
2018-Jun-23 01:00N 53°51' E 008°56'715.0
2018-Jun-23 00:31N 53°53' E 009°07'510.1
2018-Jun-23 00:01N 53°52' E 009°16'713.5
2018-Jun-22 23:30N 53°47' E 009°23'713.3
2018-Jun-22 23:00N 53°42' E 009°30'612.3
2018-Jun-22 22:31N 53°36' E 009°35'510.6
2018-Jun-22 22:00N 53°34' E 009°43'510.0
2018-Jun-22 21:30N 53°33' E 009°51'3 7.0
2018-Jun-22 21:00N 53°31' E 009°56'1 2.1
2018-Jun-22 20:26N 53°30' E 009°57'0 0.0
2018-Jun-22 19:56N 53°30' E 009°57'0 0.0
2018-Jun-22 19:26N 53°30' E 009°57'0 0.0
2018-Jun-22 18:56N 53°30' E 009°57'0 0.0
2018-Jun-22 18:26N 53°30' E 009°57'0 0.0
2018-Jun-22 17:56N 53°30' E 009°57'0 0.0
2018-Jun-22 17:20N 53°30' E 009°57'0 0.0
2018-Jun-22 16:56N 53°30' E 009°57'0 0.0
2018-Jun-22 16:23N 53°30' E 009°57'0 0.0
2018-Jun-22 15:59N 53°30' E 009°57'0 0.0
2018-Jun-22 15:26N 53°30' E 009°57'0 0.0
2018-Jun-22 14:59N 53°30' E 009°57'0 0.0
2018-Jun-22 12:56N 53°30' E 009°57'0 0.0
2018-Jun-22 12:21N 53°30' E 009°57'0 0.0
2018-Jun-22 11:59N 53°30' E 009°57'0 0.0
2018-Jun-22 11:26N 53°30' E 009°57'0 0.0
2018-Jun-22 10:50N 53°30' E 009°57'0 0.0
2018-Jun-22 10:29N 53°30' E 009°57'0 0.0
2018-Jun-22 07:53N 53°30' E 009°57'0 0.0
2018-Jun-22 07:29N 53°30' E 009°57'0 0.0
2018-Jun-22 05:27N 53°30' E 009°57'2 3.9
2018-Jun-22 05:00N 53°32' E 009°56'1 3.0
2018-Jun-22 04:30N 53°32' E 009°59'0 0.0
2018-Jun-22 04:00N 53°32' E 009°59'0 0.0
2018-Jun-22 03:12N 53°32' E 009°59'0 0.0
2018-Jun-22 02:57N 53°32' E 009°59'0 0.0
2018-Jun-22 02:21N 53°32' E 009°59'0 0.0
2018-Jun-22 02:00N 53°32' E 009°59'0 0.0
2018-Jun-22 01:30N 53°32' E 009°59'0 0.0
2018-Jun-22 01:00N 53°32' E 009°59'0 0.0
2018-Jun-22 00:30N 53°32' E 009°59'0 0.0
2018-Jun-22 00:00N 53°32' E 009°59'0 0.0
2018-Jun-21 23:30N 53°32' E 009°59'0 0.0
2018-Jun-21 23:00N 53°32' E 009°59'0 0.0
2018-Jun-21 22:30N 53°32' E 009°59'0 0.0
2018-Jun-21 21:42N 53°32' E 009°59'0 0.0
2018-Jun-21 21:30N 53°32' E 009°59'0 0.0
2018-Jun-21 20:54N 53°32' E 009°59'0 0.0
2018-Jun-21 20:30N 53°32' E 009°59'0 0.0
2018-Jun-21 19:57N 53°32' E 009°59'0 0.0
2018-Jun-21 19:30N 53°32' E 009°59'0 0.0
2018-Jun-21 18:54N 53°32' E 009°59'0 0.0
2018-Jun-21 18:27N 53°32' E 009°59'0 0.0
2018-Jun-21 17:57N 53°32' E 009°59'0 0.0
2018-Jun-21 17:27N 53°32' E 009°59'0 0.0
2018-Jun-21 17:00N 53°32' E 009°59'0 0.0
2018-Jun-21 16:30N 53°32' E 009°59'0 0.0
2018-Jun-21 16:00N 53°32' E 009°59'0 0.0
2018-Jun-21 15:27N 53°32' E 009°59'0 0.0
2018-Jun-21 14:57N 53°32' E 009°59'0 0.0
2018-Jun-21 14:30N 53°32' E 009°59'0 0.0
2018-Jun-21 14:00N 53°32' E 009°59'0 0.0
2018-Jun-21 13:27N 53°32' E 009°59'0 0.1
2018-Jun-21 13:00N 53°32' E 009°59'1 1.6
2018-Jun-21 12:31N 53°33' E 009°57'2 4.1
2018-Jun-21 12:00N 53°32' E 009°54'3 6.2
2018-Jun-21 11:30N 53°33' E 009°49'4 7.7
2018-Jun-21 11:01N 53°34' E 009°43'4 7.8
2018-Jun-21 10:30N 53°35' E 009°36'4 7.9
2018-Jun-21 10:01N 53°38' E 009°32'5 9.9
2018-Jun-21 09:31N 53°43' E 009°29'611.9
2018-Jun-21 09:00N 53°48' E 009°23'713.3
2018-Jun-21 08:31N 53°52' E 009°15'612.4
2018-Jun-21 08:00N 53°52' E 009°05'714.7
2018-Jun-21 07:31N 53°50' E 008°53'713.3
2018-Jun-21 07:01N 53°53' E 008°42'713.7
2018-Jun-21 06:31N 53°58' E 008°34'713.7
2018-Jun-21 06:00N 53°59' E 008°22'613.0
2018-Jun-21 05:30N 53°59' E 008°11'612.8
2018-Jun-21 05:00N 54°00' E 008°01'713.1
2018-Jun-21 04:28N 54°04' E 007°50'17611.6
2018-Jun-20 13:18N 52°53' E 003°20'912.3
2018-Jun-20 12:35N 52°45' E 003°13'212.8
2018-Jun-20 12:24N 52°43' E 003°11'512.8
2018-Jun-20 12:00N 52°39' E 003°07'713.2
2018-Jun-20 11:28N 52°33' E 003°01'813.5
2018-Jun-20 10:53N 52°26' E 002°54'514.0
2018-Jun-20 10:30N 52°21' E 002°50'814.3
2018-Jun-20 09:58N 52°14' E 002°44'714.0
2018-Jun-20 09:29N 52°08' E 002°42'714.6
2018-Jun-20 09:00N 52°01' E 002°41'713.6
2018-Jun-20 08:30N 51°55' E 002°47'612.1
2018-Jun-20 07:59N 51°53' E 002°57'612.2
2018-Jun-20 07:28N 51°51' E 003°06'1312.8
2018-Jun-20 06:26N 51°41' E 003°19'613.5
2018-Jun-20 06:00N 51°36' E 003°24'612.8
2018-Jun-20 05:30N 51°30' E 003°28'510.7
2018-Jun-20 05:01N 51°26' E 003°34'2 4.7
2018-Jun-20 04:30N 51°26' E 003°38'4 8.9
2018-Jun-20 04:00N 51°23' E 003°43'611.1
2018-Jun-20 03:30N 51°21' E 003°51'5 9.8
2018-Jun-20 03:00N 51°24' E 003°57'3 6.3
2018-Jun-20 02:30N 51°24' E 004°02'510.1
2018-Jun-20 02:00N 51°23' E 004°10'510.5
2018-Jun-20 01:31N 51°20' E 004°16'4 7.9
2018-Jun-20 01:00N 51°17' E 004°20'0 0.0
2018-Jun-20 00:29N 51°17' E 004°20'1 1.1
2018-Jun-20 00:00N 51°17' E 004°20'1 0.1
2018-Jun-19 13:32N 51°18' E 004°20'0 0.3
2018-Jun-19 13:30N 51°18' E 004°20'2 3.3
2018-Jun-19 13:00N 51°19' E 004°19'2 2.6
2018-Jun-19 12:20N 51°21' E 004°17'0 0.0
2018-Jun-19 11:05N 51°21' E 004°17'0 0.0
2018-Jun-19 10:51N 51°21' E 004°17'0 1.0
2018-Jun-19 10:30N 51°21' E 004°17'1 1.8
2018-Jun-19 10:00N 51°20' E 004°17'2 3.8
2018-Jun-19 09:30N 51°18' E 004°17'0 0.0
2018-Jun-19 08:34N 51°18' E 004°17'0 0.0
2018-Jun-19 08:07N 51°18' E 004°17'0 0.0
2018-Jun-19 07:43N 51°18' E 004°17'0 0.0
2018-Jun-19 07:13N 51°18' E 004°17'0 0.0
2018-Jun-19 06:43N 51°18' E 004°17'0 0.0
2018-Jun-19 06:25N 51°18' E 004°17'0 0.0
2018-Jun-19 05:49N 51°18' E 004°17'0 0.0
2018-Jun-19 05:25N 51°18' E 004°17'0 0.0
2018-Jun-19 04:58N 51°18' E 004°17'0 0.0
2018-Jun-19 04:28N 51°18' E 004°17'0 0.0
2018-Jun-19 03:58N 51°18' E 004°17'0 0.0
2018-Jun-19 03:25N 51°18' E 004°17'0 0.0
2018-Jun-19 02:58N 51°18' E 004°17'0 0.0
2018-Jun-19 02:25N 51°18' E 004°17'0 0.0
2018-Jun-19 01:58N 51°18' E 004°17'0 0.0
2018-Jun-19 00:43N 51°18' E 004°17'0 0.0
2018-Jun-19 00:25N 51°18' E 004°17'0 0.0
2018-Jun-18 23:52N 51°18' E 004°17'0 0.0
2018-Jun-18 23:28N 51°18' E 004°17'0 0.0
2018-Jun-18 22:58N 51°18' E 004°17'0 0.0
2018-Jun-18 22:28N 51°18' E 004°17'0 0.0
2018-Jun-18 21:43N 51°18' E 004°17'0 0.0
2018-Jun-18 21:25N 51°18' E 004°17'0 0.0
2018-Jun-18 20:55N 51°18' E 004°17'0 0.0
2018-Jun-18 20:25N 51°18' E 004°17'0 0.0
2018-Jun-18 19:55N 51°18' E 004°17'0 0.0
2018-Jun-18 19:19N 51°18' E 004°17'0 0.0
2018-Jun-18 18:58N 51°18' E 004°17'0 0.0
2018-Jun-18 17:43N 51°18' E 004°17'0 0.0
2018-Jun-18 17:28N 51°18' E 004°17'0 0.0
2018-Jun-18 16:55N 51°18' E 004°17'0 0.0
2018-Jun-18 16:16N 51°18' E 004°17'0 0.0
2018-Jun-18 15:55N 51°18' E 004°17'0 0.0
2018-Jun-18 14:46N 51°18' E 004°17'0 0.0
2018-Jun-18 11:25N 51°18' E 004°17'0 0.0
2018-Jun-18 09:16N 51°18' E 004°17'0 0.0
2018-Jun-18 08:58N 51°18' E 004°17'0 0.0
2018-Jun-18 08:22N 51°18' E 004°17'0 0.0
2018-Jun-18 07:58N 51°18' E 004°17'0 0.0
2018-Jun-18 07:22N 51°18' E 004°17'0 0.0
2018-Jun-18 06:19N 51°18' E 004°17'0 0.0
2018-Jun-18 05:58N 51°18' E 004°17'0 0.0
2018-Jun-18 05:28N 51°18' E 004°17'0 0.0
2018-Jun-18 04:55N 51°18' E 004°17'0 0.0
2018-Jun-18 04:22N 51°18' E 004°17'0 0.0
2018-Jun-18 03:55N 51°18' E 004°17'0 0.0
2018-Jun-18 03:25N 51°18' E 004°17'0 0.0
2018-Jun-18 02:52N 51°18' E 004°17'0 0.0
2018-Jun-18 02:25N 51°18' E 004°17'0 0.0
2018-Jun-18 01:58N 51°18' E 004°17'0 0.0
2018-Jun-18 01:22N 51°18' E 004°17'0 0.0
2018-Jun-18 00:55N 51°18' E 004°17'0 0.0
2018-Jun-18 00:28N 51°18' E 004°17'0 0.0
2018-Jun-17 23:58N 51°18' E 004°17'0 0.0
2018-Jun-17 23:28N 51°18' E 004°17'0 0.0
2018-Jun-17 22:58N 51°18' E 004°17'0 0.0
2018-Jun-17 22:28N 51°18' E 004°17'0 0.0
2018-Jun-17 21:55N 51°18' E 004°17'0 0.0
2018-Jun-17 21:28N 51°18' E 004°17'0 0.0
2018-Jun-17 20:49N 51°18' E 004°17'0 0.0
2018-Jun-17 20:28N 51°18' E 004°17'0 0.0
2018-Jun-17 19:55N 51°18' E 004°17'0 0.0
2018-Jun-17 19:25N 51°18' E 004°17'0 0.0
2018-Jun-17 18:55N 51°18' E 004°17'0 0.0
2018-Jun-17 18:28N 51°18' E 004°17'0 0.0
2018-Jun-17 17:52N 51°18' E 004°17'0 0.0
2018-Jun-17 17:25N 51°18' E 004°17'0 0.0
2018-Jun-17 16:55N 51°18' E 004°17'0 0.0
2018-Jun-17 16:28N 51°18' E 004°17'0 0.0
2018-Jun-17 15:55N 51°18' E 004°17'0 0.0
2018-Jun-17 15:28N 51°18' E 004°17'0 0.0
2018-Jun-17 14:43N 51°18' E 004°17'0 0.0
2018-Jun-17 14:22N 51°18' E 004°17'0 0.1
2018-Jun-17 14:00N 51°18' E 004°17'2 3.7
2018-Jun-17 13:30N 51°20' E 004°16'510.6
2018-Jun-17 13:00N 51°23' E 004°10'510.4
2018-Jun-17 12:30N 51°24' E 004°02'4 7.4
2018-Jun-17 12:00N 51°23' E 003°57'612.0
2018-Jun-17 11:30N 51°21' E 003°47'611.5
2018-Jun-17 11:00N 51°26' E 003°41'5 9.9
2018-Jun-17 10:30N 51°25' E 003°34'611.1
2018-Jun-17 10:00N 51°25' E 003°25'610.8
2018-Jun-17 09:29N 51°24' E 003°16'510.3
2018-Jun-17 09:00N 51°24' E 003°08'510.4
2018-Jun-17 08:30N 51°23' E 002°59'611.3
2018-Jun-17 08:00N 51°22' E 002°51'5 9.3
2018-Jun-17 07:29N 51°22' E 002°43'611.8
2018-Jun-17 07:00N 51°22' E 002°34'612.0
2018-Jun-17 06:30N 51°20' E 002°25'611.8
2018-Jun-17 06:00N 51°18' E 002°16'611.9
2018-Jun-17 05:30N 51°15' E 002°08'612.8
2018-Jun-17 05:00N 51°11' E 001°60'713.5
2018-Jun-17 04:30N 51°08' E 001°50'714.1
2018-Jun-17 04:01N 51°03' E 001°42'714.9
2018-Jun-17 03:31N 50°58' E 001°34'815.0
2018-Jun-17 03:00N 50°52' E 001°27'714.9
2018-Jun-17 02:31N 50°45' E 001°23'713.7
2018-Jun-17 02:00N 50°39' E 001°17'814.0
2018-Jun-17 01:28N 50°34' E 001°08'613.2
2018-Jun-17 00:58N 50°31' E 000°59'713.3
2018-Jun-17 00:26N 50°29' E 000°48'613.7
2018-Jun-17 00:00N 50°28' E 000°39'3114.6
2018-Jun-16 21:54N 50°19' W 000°07'614.6
2018-Jun-16 21:31N 50°17' W 000°15'714.6
2018-Jun-16 21:00N 50°15' W 000°26'714.3
2018-Jun-16 20:30N 50°13' W 000°37'713.7
2018-Jun-16 20:00N 50°11' W 000°47'713.1
2018-Jun-16 19:30N 50°10' W 000°57'2011.1
2018-Jun-16 17:41N 50°04' W 001°28'28 8.3
2018-Jun-16 14:19N 49°57' W 002°10'4 8.8
2018-Jun-16 13:55N 49°56' W 002°15'810.1
2018-Jun-16 13:07N 49°54' W 002°27'1111.3
2018-Jun-16 12:07N 49°51' W 002°44'211.7
2018-Jun-16 11:59N 49°51' W 002°46'1312.2
2018-Jun-16 10:57N 49°45' W 003°04'612.9
2018-Jun-16 10:30N 49°42' W 003°12'8513.7
2018-Jun-16 04:18N 48°59' W 005°04'413.0
2018-Jun-16 04:00N 48°57' W 005°09'812.8
2018-Jun-16 03:23N 48°54' W 005°20'613.2
2018-Jun-16 02:55N 48°51' W 005°28'612.9
2018-Jun-16 02:30N 48°48' W 005°35'  
2018-Jun-13 21:00N 39°19' W 009°57'710.3
2018-Jun-13 20:21N 39°12' W 009°57'410.0
2018-Jun-13 20:00N 39°09' W 009°57'510.2
2018-Jun-13 19:30N 39°04' W 009°57'510.1
2018-Jun-13 19:00N 38°58' W 009°57'5 9.8
2018-Jun-13 18:30N 38°54' W 009°57'510.1
2018-Jun-13 18:00N 38°49' W 009°57'510.3
2018-Jun-13 17:30N 38°43' W 009°57'510.4
2018-Jun-13 17:00N 38°38' W 009°56'510.3
2018-Jun-13 16:31N 38°33' W 009°55'510.2
2018-Jun-13 16:00N 38°28' W 009°53'610.2
2018-Jun-13 15:26N 38°22' W 009°52'510.3
2018-Jun-13 14:57N 38°18' W 009°50'510.5
2018-Jun-13 14:30N 38°13' W 009°49'610.8
2018-Jun-13 13:58N 38°08' W 009°47'611.0
2018-Jun-13 13:25N 38°02' W 009°45'511.2
2018-Jun-13 12:59N 37°57' W 009°44'711.3
2018-Jun-13 12:20N 37°50' W 009°42'511.6
2018-Jun-13 11:56N 37°45' W 009°41'711.6
2018-Jun-13 11:20N 37°38' W 009°39'411.7
2018-Jun-13 10:59N 37°34' W 009°37'2911.3
2018-Jun-13 08:26N 37°06' W 009°29'511.0
2018-Jun-13 07:57N 37°01' W 009°27'37 9.1
2018-Jun-13 03:56N 36°40' W 008°50'  
Track history (hours):
 
Tides and Currents Weather Stations Pressure Air Temp Water Temp Dewpoint Dewpoint Depression Visibility Wind Speed Wind Dir Waves Ship Positions

Med Antarctic

Last reported at 2018-Jun-23 03:06 UTC. Time now 2018-Jun-23 06:09 UTC.
Position N 54°00' E 008°16'.

Length 124 m; draft 5.4 m.

Type: Ship. MMSI: 248315000.

Date/timePositionNaut miles runAvg speedWind from/ knotsBaromVisibWave heightAir tempDewpointWater temp
2018-Jun-23 03:06N 54°00' E 008°16'110.7
2018-Jun-23 02:59N 54°00' E 008°18'611.3
2018-Jun-23 02:28N 53°59' E 008°28'612.5
2018-Jun-23 01:59N 53°57' E 008°38'613.2
2018-Jun-23 01:30N 53°52' E 008°44'713.7
2018-Jun-23 01:00N 53°51' E 008°56'715.0
2018-Jun-23 00:31N 53°53' E 009°07'510.1
2018-Jun-23 00:01N 53°52' E 009°16'713.5
2018-Jun-22 23:30N 53°47' E 009°23'713.3
2018-Jun-22 23:00N 53°42' E 009°30'612.3
2018-Jun-22 22:31N 53°36' E 009°35'510.6
2018-Jun-22 22:00N 53°34' E 009°43'510.0
2018-Jun-22 21:30N 53°33' E 009°51'3 7.0
2018-Jun-22 21:00N 53°31' E 009°56'1 2.1
2018-Jun-22 20:26N 53°30' E 009°57'0 0.0
2018-Jun-22 19:56N 53°30' E 009°57'0 0.0
2018-Jun-22 19:26N 53°30' E 009°57'0 0.0
2018-Jun-22 18:56N 53°30' E 009°57'0 0.0
2018-Jun-22 18:26N 53°30' E 009°57'0 0.0
2018-Jun-22 17:56N 53°30' E 009°57'0 0.0
2018-Jun-22 17:20N 53°30' E 009°57'0 0.0
2018-Jun-22 16:56N 53°30' E 009°57'0 0.0
2018-Jun-22 16:23N 53°30' E 009°57'0 0.0
2018-Jun-22 15:59N 53°30' E 009°57'0 0.0
2018-Jun-22 15:26N 53°30' E 009°57'0 0.0
2018-Jun-22 14:59N 53°30' E 009°57'0 0.0
2018-Jun-22 12:56N 53°30' E 009°57'0 0.0
2018-Jun-22 12:21N 53°30' E 009°57'0 0.0
2018-Jun-22 11:59N 53°30' E 009°57'0 0.0
2018-Jun-22 11:26N 53°30' E 009°57'0 0.0
2018-Jun-22 10:50N 53°30' E 009°57'0 0.0
2018-Jun-22 10:29N 53°30' E 009°57'0 0.0
2018-Jun-22 07:53N 53°30' E 009°57'0 0.0
2018-Jun-22 07:29N 53°30' E 009°57'0 0.0
2018-Jun-22 05:27N 53°30' E 009°57'2 3.9
2018-Jun-22 05:00N 53°32' E 009°56'1 3.0
2018-Jun-22 04:30N 53°32' E 009°59'0 0.0
2018-Jun-22 04:00N 53°32' E 009°59'0 0.0
2018-Jun-22 03:12N 53°32' E 009°59'0 0.0
2018-Jun-22 02:57N 53°32' E 009°59'0 0.0
2018-Jun-22 02:21N 53°32' E 009°59'0 0.0
2018-Jun-22 02:00N 53°32' E 009°59'0 0.0
2018-Jun-22 01:30N 53°32' E 009°59'0 0.0
2018-Jun-22 01:00N 53°32' E 009°59'0 0.0
2018-Jun-22 00:30N 53°32' E 009°59'0 0.0
2018-Jun-22 00:00N 53°32' E 009°59'0 0.0
2018-Jun-21 23:30N 53°32' E 009°59'0 0.0
2018-Jun-21 23:00N 53°32' E 009°59'0 0.0
2018-Jun-21 22:30N 53°32' E 009°59'0 0.0
2018-Jun-21 21:42N 53°32' E 009°59'0 0.0
2018-Jun-21 21:30N 53°32' E 009°59'0 0.0
2018-Jun-21 20:54N 53°32' E 009°59'0 0.0
2018-Jun-21 20:30N 53°32' E 009°59'0 0.0
2018-Jun-21 19:57N 53°32' E 009°59'0 0.0
2018-Jun-21 19:30N 53°32' E 009°59'0 0.0
2018-Jun-21 18:54N 53°32' E 009°59'0 0.0
2018-Jun-21 18:27N 53°32' E 009°59'0 0.0
2018-Jun-21 17:57N 53°32' E 009°59'0 0.0
2018-Jun-21 17:27N 53°32' E 009°59'0 0.0
2018-Jun-21 17:00N 53°32' E 009°59'0 0.0
2018-Jun-21 16:30N 53°32' E 009°59'0 0.0
2018-Jun-21 16:00N 53°32' E 009°59'0 0.0
2018-Jun-21 15:27N 53°32' E 009°59'0 0.0
2018-Jun-21 14:57N 53°32' E 009°59'0 0.0
2018-Jun-21 14:30N 53°32' E 009°59'0 0.0
2018-Jun-21 14:00N 53°32' E 009°59'0 0.0
2018-Jun-21 13:27N 53°32' E 009°59'0 0.1
2018-Jun-21 13:00N 53°32' E 009°59'1 1.6
2018-Jun-21 12:31N 53°33' E 009°57'2 4.1
2018-Jun-21 12:00N 53°32' E 009°54'3 6.2
2018-Jun-21 11:30N 53°33' E 009°49'4 7.7
2018-Jun-21 11:01N 53°34' E 009°43'4 7.8
2018-Jun-21 10:30N 53°35' E 009°36'4 7.9
2018-Jun-21 10:01N 53°38' E 009°32'5 9.9
2018-Jun-21 09:31N 53°43' E 009°29'611.9
2018-Jun-21 09:00N 53°48' E 009°23'713.3
2018-Jun-21 08:31N 53°52' E 009°15'612.4
2018-Jun-21 08:00N 53°52' E 009°05'714.7
2018-Jun-21 07:31N 53°50' E 008°53'713.3
2018-Jun-21 07:01N 53°53' E 008°42'713.7
2018-Jun-21 06:31N 53°58' E 008°34'713.7
2018-Jun-21 06:00N 53°59' E 008°22'613.0
2018-Jun-21 05:30N 53°59' E 008°11'612.8
2018-Jun-21 05:00N 54°00' E 008°01'713.1
2018-Jun-21 04:28N 54°04' E 007°50'17611.6
2018-Jun-20 13:18N 52°53' E 003°20'912.3
2018-Jun-20 12:35N 52°45' E 003°13'212.8
2018-Jun-20 12:24N 52°43' E 003°11'512.8
2018-Jun-20 12:00N 52°39' E 003°07'713.2
2018-Jun-20 11:28N 52°33' E 003°01'813.5
2018-Jun-20 10:53N 52°26' E 002°54'514.0
2018-Jun-20 10:30N 52°21' E 002°50'814.3
2018-Jun-20 09:58N 52°14' E 002°44'714.0
2018-Jun-20 09:29N 52°08' E 002°42'714.6
2018-Jun-20 09:00N 52°01' E 002°41'713.6
2018-Jun-20 08:30N 51°55' E 002°47'612.1
2018-Jun-20 07:59N 51°53' E 002°57'612.2
2018-Jun-20 07:28N 51°51' E 003°06'1312.8
2018-Jun-20 06:26N 51°41' E 003°19'613.5
2018-Jun-20 06:00N 51°36' E 003°24'612.8
2018-Jun-20 05:30N 51°30' E 003°28'510.7
2018-Jun-20 05:01N 51°26' E 003°34'2 4.7
2018-Jun-20 04:30N 51°26' E 003°38'4 8.9
2018-Jun-20 04:00N 51°23' E 003°43'611.1
2018-Jun-20 03:30N 51°21' E 003°51'5 9.8
2018-Jun-20 03:00N 51°24' E 003°57'3 6.3
2018-Jun-20 02:30N 51°24' E 004°02'510.1
2018-Jun-20 02:00N 51°23' E 004°10'510.5
2018-Jun-20 01:31N 51°20' E 004°16'4 7.9
2018-Jun-20 01:00N 51°17' E 004°20'0 0.0
2018-Jun-20 00:29N 51°17' E 004°20'1 1.1
2018-Jun-20 00:00N 51°17' E 004°20'1 0.1
2018-Jun-19 13:32N 51°18' E 004°20'0 0.3
2018-Jun-19 13:30N 51°18' E 004°20'2 3.3
2018-Jun-19 13:00N 51°19' E 004°19'2 2.6
2018-Jun-19 12:20N 51°21' E 004°17'0 0.0
2018-Jun-19 11:05N 51°21' E 004°17'0 0.0
2018-Jun-19 10:51N 51°21' E 004°17'0 1.0
2018-Jun-19 10:30N 51°21' E 004°17'1 1.8
2018-Jun-19 10:00N 51°20' E 004°17'2 3.8
2018-Jun-19 09:30N 51°18' E 004°17'0 0.0
2018-Jun-19 08:34N 51°18' E 004°17'0 0.0
2018-Jun-19 08:07N 51°18' E 004°17'0 0.0
2018-Jun-19 07:43N 51°18' E 004°17'0 0.0
2018-Jun-19 07:13N 51°18' E 004°17'0 0.0
2018-Jun-19 06:43N 51°18' E 004°17'0 0.0
2018-Jun-19 06:25N 51°18' E 004°17'0 0.0
2018-Jun-19 05:49N 51°18' E 004°17'0 0.0
2018-Jun-19 05:25N 51°18' E 004°17'0 0.0
2018-Jun-19 04:58N 51°18' E 004°17'0 0.0
2018-Jun-19 04:28N 51°18' E 004°17'0 0.0
2018-Jun-19 03:58N 51°18' E 004°17'0 0.0
2018-Jun-19 03:25N 51°18' E 004°17'0 0.0
2018-Jun-19 02:58N 51°18' E 004°17'0 0.0
2018-Jun-19 02:25N 51°18' E 004°17'0 0.0
2018-Jun-19 01:58N 51°18' E 004°17'0 0.0
2018-Jun-19 00:43N 51°18' E 004°17'0 0.0
2018-Jun-19 00:25N 51°18' E 004°17'0 0.0
2018-Jun-18 23:52N 51°18' E 004°17'0 0.0
2018-Jun-18 23:28N 51°18' E 004°17'0 0.0
2018-Jun-18 22:58N 51°18' E 004°17'0 0.0
2018-Jun-18 22:28N 51°18' E 004°17'0 0.0
2018-Jun-18 21:43N 51°18' E 004°17'0 0.0
2018-Jun-18 21:25N 51°18' E 004°17'0 0.0
2018-Jun-18 20:55N 51°18' E 004°17'0 0.0
2018-Jun-18 20:25N 51°18' E 004°17'0 0.0
2018-Jun-18 19:55N 51°18' E 004°17'0 0.0
2018-Jun-18 19:19N 51°18' E 004°17'0 0.0
2018-Jun-18 18:58N 51°18' E 004°17'0 0.0
2018-Jun-18 17:43N 51°18' E 004°17'0 0.0
2018-Jun-18 17:28N 51°18' E 004°17'0 0.0
2018-Jun-18 16:55N 51°18' E 004°17'0 0.0
2018-Jun-18 16:16N 51°18' E 004°17'0 0.0
2018-Jun-18 15:55N 51°18' E 004°17'0 0.0
2018-Jun-18 14:46N 51°18' E 004°17'0 0.0
2018-Jun-18 11:25N 51°18' E 004°17'0 0.0
2018-Jun-18 09:16N 51°18' E 004°17'0 0.0
2018-Jun-18 08:58N 51°18' E 004°17'0 0.0
2018-Jun-18 08:22N 51°18' E 004°17'0 0.0
2018-Jun-18 07:58N 51°18' E 004°17'0 0.0
2018-Jun-18 07:22N 51°18' E 004°17'0 0.0
2018-Jun-18 06:19N 51°18' E 004°17'0 0.0
2018-Jun-18 05:58N 51°18' E 004°17'0 0.0
2018-Jun-18 05:28N 51°18' E 004°17'0 0.0
2018-Jun-18 04:55N 51°18' E 004°17'0 0.0
2018-Jun-18 04:22N 51°18' E 004°17'0 0.0
2018-Jun-18 03:55N 51°18' E 004°17'0 0.0
2018-Jun-18 03:25N 51°18' E 004°17'0 0.0
2018-Jun-18 02:52N 51°18' E 004°17'0 0.0
2018-Jun-18 02:25N 51°18' E 004°17'0 0.0
2018-Jun-18 01:58N 51°18' E 004°17'0 0.0
2018-Jun-18 01:22N 51°18' E 004°17'0 0.0
2018-Jun-18 00:55N 51°18' E 004°17'0 0.0
2018-Jun-18 00:28N 51°18' E 004°17'0 0.0
2018-Jun-17 23:58N 51°18' E 004°17'0 0.0
2018-Jun-17 23:28N 51°18' E 004°17'0 0.0
2018-Jun-17 22:58N 51°18' E 004°17'0 0.0
2018-Jun-17 22:28N 51°18' E 004°17'0 0.0
2018-Jun-17 21:55N 51°18' E 004°17'0 0.0
2018-Jun-17 21:28N 51°18' E 004°17'0 0.0
2018-Jun-17 20:49N 51°18' E 004°17'0 0.0
2018-Jun-17 20:28N 51°18' E 004°17'0 0.0
2018-Jun-17 19:55N 51°18' E 004°17'0 0.0
2018-Jun-17 19:25N 51°18' E 004°17'0 0.0
2018-Jun-17 18:55N 51°18' E 004°17'0 0.0
2018-Jun-17 18:28N 51°18' E 004°17'0 0.0
2018-Jun-17 17:52N 51°18' E 004°17'0 0.0
2018-Jun-17 17:25N 51°18' E 004°17'0 0.0
2018-Jun-17 16:55N 51°18' E 004°17'0 0.0
2018-Jun-17 16:28N 51°18' E 004°17'0 0.0
2018-Jun-17 15:55N 51°18' E 004°17'0 0.0
2018-Jun-17 15:28N 51°18' E 004°17'0 0.0
2018-Jun-17 14:43N 51°18' E 004°17'0 0.0
2018-Jun-17 14:22N 51°18' E 004°17'0 0.1
2018-Jun-17 14:00N 51°18' E 004°17'2 3.7
2018-Jun-17 13:30N 51°20' E 004°16'510.6
2018-Jun-17 13:00N 51°23' E 004°10'510.4
2018-Jun-17 12:30N 51°24' E 004°02'4 7.4
2018-Jun-17 12:00N 51°23' E 003°57'612.0
2018-Jun-17 11:30N 51°21' E 003°47'611.5
2018-Jun-17 11:00N 51°26' E 003°41'5 9.9
2018-Jun-17 10:30N 51°25' E 003°34'611.1
2018-Jun-17 10:00N 51°25' E 003°25'610.8
2018-Jun-17 09:29N 51°24' E 003°16'510.3
2018-Jun-17 09:00N 51°24' E 003°08'510.4
2018-Jun-17 08:30N 51°23' E 002°59'611.3
2018-Jun-17 08:00N 51°22' E 002°51'5 9.3
2018-Jun-17 07:29N 51°22' E 002°43'611.8
2018-Jun-17 07:00N 51°22' E 002°34'612.0
2018-Jun-17 06:30N 51°20' E 002°25'611.8
2018-Jun-17 06:00N 51°18' E 002°16'611.9
2018-Jun-17 05:30N 51°15' E 002°08'612.8
2018-Jun-17 05:00N 51°11' E 001°60'713.5
2018-Jun-17 04:30N 51°08' E 001°50'714.1
2018-Jun-17 04:01N 51°03' E 001°42'714.9
2018-Jun-17 03:31N 50°58' E 001°34'815.0
2018-Jun-17 03:00N 50°52' E 001°27'714.9
2018-Jun-17 02:31N 50°45' E 001°23'713.7
2018-Jun-17 02:00N 50°39' E 001°17'814.0
2018-Jun-17 01:28N 50°34' E 001°08'613.2
2018-Jun-17 00:58N 50°31' E 000°59'713.3
2018-Jun-17 00:26N 50°29' E 000°48'613.7
2018-Jun-17 00:00N 50°28' E 000°39'3114.6
2018-Jun-16 21:54N 50°19' W 000°07'614.6
2018-Jun-16 21:31N 50°17' W 000°15'714.6
2018-Jun-16 21:00N 50°15' W 000°26'714.3
2018-Jun-16 20:30N 50°13' W 000°37'713.7
2018-Jun-16 20:00N 50°11' W 000°47'713.1
2018-Jun-16 19:30N 50°10' W 000°57'2011.1
2018-Jun-16 17:41N 50°04' W 001°28'28 8.3
2018-Jun-16 14:19N 49°57' W 002°10'4 8.8
2018-Jun-16 13:55N 49°56' W 002°15'810.1
2018-Jun-16 13:07N 49°54' W 002°27'1111.3
2018-Jun-16 12:07N 49°51' W 002°44'211.7
2018-Jun-16 11:59N 49°51' W 002°46'1312.2
2018-Jun-16 10:57N 49°45' W 003°04'612.9
2018-Jun-16 10:30N 49°42' W 003°12'8513.7
2018-Jun-16 04:18N 48°59' W 005°04'413.0
2018-Jun-16 04:00N 48°57' W 005°09'812.8
2018-Jun-16 03:23N 48°54' W 005°20'613.2
2018-Jun-16 02:55N 48°51' W 005°28'612.9
2018-Jun-16 02:30N 48°48' W 005°35'  
2018-Jun-13 21:00N 39°19' W 009°57'710.3
2018-Jun-13 20:21N 39°12' W 009°57'410.0
2018-Jun-13 20:00N 39°09' W 009°57'510.2
2018-Jun-13 19:30N 39°04' W 009°57'510.1
2018-Jun-13 19:00N 38°58' W 009°57'5 9.8
2018-Jun-13 18:30N 38°54' W 009°57'510.1
2018-Jun-13 18:00N 38°49' W 009°57'510.3
2018-Jun-13 17:30N 38°43' W 009°57'510.4
2018-Jun-13 17:00N 38°38' W 009°56'510.3
2018-Jun-13 16:31N 38°33' W 009°55'510.2
2018-Jun-13 16:00N 38°28' W 009°53'610.2
2018-Jun-13 15:26N 38°22' W 009°52'510.3
2018-Jun-13 14:57N 38°18' W 009°50'510.5
2018-Jun-13 14:30N 38°13' W 009°49'610.8
2018-Jun-13 13:58N 38°08' W 009°47'611.0
2018-Jun-13 13:25N 38°02' W 009°45'511.2
2018-Jun-13 12:59N 37°57' W 009°44'711.3
2018-Jun-13 12:20N 37°50' W 009°42'511.6
2018-Jun-13 11:56N 37°45' W 009°41'711.6
2018-Jun-13 11:20N 37°38' W 009°39'411.7
2018-Jun-13 10:59N 37°34' W 009°37'2911.3
2018-Jun-13 08:26N 37°06' W 009°29'511.0
2018-Jun-13 07:57N 37°01' W 009°27'37 9.1
2018-Jun-13 03:56N 36°40' W 008°50'  

Dump ship's entire track history